sensor_id;sensor_type;location;lat;lon;timestamp;temperature;humidity
14349;DHT22;7258;50.376;8.742;2023-09-07T00:00:36;16.00;99.90
14349;DHT22;7258;50.376;8.742;2023-09-07T00:02:39;15.90;99.90
14349;DHT22;7258;50.376;8.742;2023-09-07T00:04:43;15.90;99.90
14349;DHT22;7258;50.376;8.742;2023-09-07T00:06:46;15.90;99.90
14349;DHT22;7258;50.376;8.742;2023-09-07T00:08:49;15.90;99.90
14349;DHT22;7258;50.376;8.742;2023-09-07T00:10:52;15.90;99.90
14349;DHT22;7258;50.376;8.742;2023-09-07T00:12:55;15.90;99.90
14349;DHT22;7258;50.376;8.742;2023-09-07T00:14:58;15.90;99.90
14349;DHT22;7258;50.376;8.742;2023-09-07T00:17:03;15.90;99.90
14349;DHT22;7258;50.376;8.742;2023-09-07T00:19:06;15.90;99.90
14349;DHT22;7258;50.376;8.742;2023-09-07T00:21:09;15.90;99.90
14349;DHT22;7258;50.376;8.742;2023-09-07T00:23:12;15.80;99.90
14349;DHT22;7258;50.376;8.742;2023-09-07T00:25:14;15.80;99.90
14349;DHT22;7258;50.376;8.742;2023-09-07T00:27:17;15.80;99.90
14349;DHT22;7258;50.376;8.742;2023-09-07T00:29:20;15.70;99.90
14349;DHT22;7258;50.376;8.742;2023-09-07T00:31:23;15.70;99.90
14349;DHT22;7258;50.376;8.742;2023-09-07T00:33:28;15.60;99.90
14349;DHT22;7258;50.376;8.742;2023-09-07T00:35:31;15.60;99.90
14349;DHT22;7258;50.376;8.742;2023-09-07T00:37:33;15.60;99.90
14349;DHT22;7258;50.376;8.742;2023-09-07T00:39:36;15.60;99.90
14349;DHT22;7258;50.376;8.742;2023-09-07T00:41:38;15.50;99.90
14349;DHT22;7258;50.376;8.742;2023-09-07T00:43:41;15.60;99.90
14349;DHT22;7258;50.376;8.742;2023-09-07T00:45:44;15.50;99.90
14349;DHT22;7258;50.376;8.742;2023-09-07T00:47:47;15.50;99.90
14349;DHT22;7258;50.376;8.742;2023-09-07T00:49:51;15.50;99.90
14349;DHT22;7258;50.376;8.742;2023-09-07T00:51:55;15.50;99.90
14349;DHT22;7258;50.376;8.742;2023-09-07T00:53:57;15.50;99.90
14349;DHT22;7258;50.376;8.742;2023-09-07T00:56:02;15.50;99.90
14349;DHT22;7258;50.376;8.742;2023-09-07T00:58:04;15.40;99.90
14349;DHT22;7258;50.376;8.742;2023-09-07T01:00:08;15.50;99.90
14349;DHT22;7258;50.376;8.742;2023-09-07T01:02:12;15.50;99.90
14349;DHT22;7258;50.376;8.742;2023-09-07T01:04:15;15.50;99.90
14349;DHT22;7258;50.376;8.742;2023-09-07T01:06:22;15.50;99.90
14349;DHT22;7258;50.376;8.742;2023-09-07T01:08:32;15.40;99.90
14349;DHT22;7258;50.376;8.742;2023-09-07T01:10:38;15.40;99.90
14349;DHT22;7258;50.376;8.742;2023-09-07T01:12:41;15.40;99.90
14349;DHT22;7258;50.376;8.742;2023-09-07T01:14:44;15.40;99.90
14349;DHT22;7258;50.376;8.742;2023-09-07T01:16:47;15.40;99.90
14349;DHT22;7258;50.376;8.742;2023-09-07T01:18:50;15.30;99.90
14349;DHT22;7258;50.376;8.742;2023-09-07T01:20:54;15.30;99.90
14349;DHT22;7258;50.376;8.742;2023-09-07T01:22:59;15.30;99.90
14349;DHT22;7258;50.376;8.742;2023-09-07T01:25:03;15.20;99.90
14349;DHT22;7258;50.376;8.742;2023-09-07T01:27:08;15.10;99.90
14349;DHT22;7258;50.376;8.742;2023-09-07T01:29:11;15.10;99.90
14349;DHT22;7258;50.376;8.742;2023-09-07T01:31:13;15.00;99.90
14349;DHT22;7258;50.376;8.742;2023-09-07T01:33:17;15.00;99.90
14349;DHT22;7258;50.376;8.742;2023-09-07T01:35:20;15.00;99.90
14349;DHT22;7258;50.376;8.742;2023-09-07T01:37:24;14.90;99.90
14349;DHT22;7258;50.376;8.742;2023-09-07T01:39:29;14.90;99.90
14349;DHT22;7258;50.376;8.742;2023-09-07T01:41:31;14.90;99.90
14349;DHT22;7258;50.376;8.742;2023-09-07T01:43:35;14.90;99.90
14349;DHT22;7258;50.376;8.742;2023-09-07T01:45:38;14.90;99.90
14349;DHT22;7258;50.376;8.742;2023-09-07T01:47:41;14.90;99.90
14349;DHT22;7258;50.376;8.742;2023-09-07T01:49:44;14.90;99.90
14349;DHT22;7258;50.376;8.742;2023-09-07T01:51:47;14.90;99.90
14349;DHT22;7258;50.376;8.742;2023-09-07T01:53:49;14.90;99.90
14349;DHT22;7258;50.376;8.742;2023-09-07T01:55:55;14.80;99.90
14349;DHT22;7258;50.376;8.742;2023-09-07T01:57:58;14.80;99.90
14349;DHT22;7258;50.376;8.742;2023-09-07T02:00:00;14.80;99.90
14349;DHT22;7258;50.376;8.742;2023-09-07T02:02:06;14.80;99.90
14349;DHT22;7258;50.376;8.742;2023-09-07T02:04:09;14.70;99.90
14349;DHT22;7258;50.376;8.742;2023-09-07T02:06:12;14.70;99.90
14349;DHT22;7258;50.376;8.742;2023-09-07T02:08:14;14.70;99.90
14349;DHT22;7258;50.376;8.742;2023-09-07T02:10:17;14.70;99.90
14349;DHT22;7258;50.376;8.742;2023-09-07T02:12:22;14.60;99.90
14349;DHT22;7258;50.376;8.742;2023-09-07T02:14:24;14.60;99.90
14349;DHT22;7258;50.376;8.742;2023-09-07T02:16:27;14.60;99.90
14349;DHT22;7258;50.376;8.742;2023-09-07T02:18:31;14.50;99.90
14349;DHT22;7258;50.376;8.742;2023-09-07T02:20:35;14.50;99.90
14349;DHT22;7258;50.376;8.742;2023-09-07T02:22:38;14.50;99.90
14349;DHT22;7258;50.376;8.742;2023-09-07T02:24:41;14.50;99.90
14349;DHT22;7258;50.376;8.742;2023-09-07T02:26:43;14.40;99.90
14349;DHT22;7258;50.376;8.742;2023-09-07T02:28:48;14.40;99.90
14349;DHT22;7258;50.376;8.742;2023-09-07T02:30:50;14.40;99.90
14349;DHT22;7258;50.376;8.742;2023-09-07T02:32:53;14.40;99.90
14349;DHT22;7258;50.376;8.742;2023-09-07T02:34:56;14.40;99.90
14349;DHT22;7258;50.376;8.742;2023-09-07T02:36:59;14.40;99.90
14349;DHT22;7258;50.376;8.742;2023-09-07T02:39:02;14.40;99.90
14349;DHT22;7258;50.376;8.742;2023-09-07T02:41:06;14.30;99.90
14349;DHT22;7258;50.376;8.742;2023-09-07T02:43:09;14.30;99.90
14349;DHT22;7258;50.376;8.742;2023-09-07T02:45:14;14.30;99.90
14349;DHT22;7258;50.376;8.742;2023-09-07T02:47:17;14.30;99.90
14349;DHT22;7258;50.376;8.742;2023-09-07T02:49:20;14.30;99.90
14349;DHT22;7258;50.376;8.742;2023-09-07T02:51:23;14.30;99.90
14349;DHT22;7258;50.376;8.742;2023-09-07T02:53:26;14.30;99.90
14349;DHT22;7258;50.376;8.742;2023-09-07T02:55:29;14.20;99.90
14349;DHT22;7258;50.376;8.742;2023-09-07T02:57:32;14.20;99.90
14349;DHT22;7258;50.376;8.742;2023-09-07T02:59:34;14.20;99.90
14349;DHT22;7258;50.376;8.742;2023-09-07T03:01:39;14.20;99.90
14349;DHT22;7258;50.376;8.742;2023-09-07T03:03:42;14.10;99.90
14349;DHT22;7258;50.376;8.742;2023-09-07T03:05:45;14.10;99.90
14349;DHT22;7258;50.376;8.742;2023-09-07T03:07:49;14.00;99.90
14349;DHT22;7258;50.376;8.742;2023-09-07T03:09:52;14.00;99.90
14349;DHT22;7258;50.376;8.742;2023-09-07T03:11:55;14.00;99.90
14349;DHT22;7258;50.376;8.742;2023-09-07T03:13:58;14.00;99.90
14349;DHT22;7258;50.376;8.742;2023-09-07T03:16:02;14.00;99.90
14349;DHT22;7258;50.376;8.742;2023-09-07T03:18:07;14.00;99.90
14349;DHT22;7258;50.376;8.742;2023-09-07T03:20:11;13.90;99.90
14349;DHT22;7258;50.376;8.742;2023-09-07T03:22:15;13.90;99.90
14349;DHT22;7258;50.376;8.742;2023-09-07T03:24:18;13.90;99.90
14349;DHT22;7258;50.376;8.742;2023-09-07T03:26:22;13.90;99.90
14349;DHT22;7258;50.376;8.742;2023-09-07T03:28:23;14.00;99.90
14349;DHT22;7258;50.376;8.742;2023-09-07T03:30:27;14.00;99.90
14349;DHT22;7258;50.376;8.742;2023-09-07T03:32:30;14.00;99.90
14349;DHT22;7258;50.376;8.742;2023-09-07T03:34:36;14.00;99.90
14349;DHT22;7258;50.376;8.742;2023-09-07T03:36:39;14.00;99.90
14349;DHT22;7258;50.376;8.742;2023-09-07T03:38:43;13.90;99.90
14349;DHT22;7258;50.376;8.742;2023-09-07T03:40:46;13.90;99.90
14349;DHT22;7258;50.376;8.742;2023-09-07T03:42:49;13.90;99.90
14349;DHT22;7258;50.376;8.742;2023-09-07T03:44:52;13.90;99.90
14349;DHT22;7258;50.376;8.742;2023-09-07T03:46:54;13.90;99.90
14349;DHT22;7258;50.376;8.742;2023-09-07T03:48:57;13.90;99.90
14349;DHT22;7258;50.376;8.742;2023-09-07T03:51:05;13.90;99.90
14349;DHT22;7258;50.376;8.742;2023-09-07T03:53:08;13.90;99.90
14349;DHT22;7258;50.376;8.742;2023-09-07T03:55:11;13.90;99.90
14349;DHT22;7258;50.376;8.742;2023-09-07T03:57:14;13.90;99.90
14349;DHT22;7258;50.376;8.742;2023-09-07T03:59:17;13.80;99.90
14349;DHT22;7258;50.376;8.742;2023-09-07T04:01:20;13.80;99.90
14349;DHT22;7258;50.376;8.742;2023-09-07T04:03:23;13.80;99.90
14349;DHT22;7258;50.376;8.742;2023-09-07T04:05:26;13.80;99.90
14349;DHT22;7258;50.376;8.742;2023-09-07T04:07:30;13.80;99.90
14349;DHT22;7258;50.376;8.742;2023-09-07T04:09:32;13.80;99.90
14349;DHT22;7258;50.376;8.742;2023-09-07T04:11:36;13.80;99.90
14349;DHT22;7258;50.376;8.742;2023-09-07T04:13:39;13.80;99.90
14349;DHT22;7258;50.376;8.742;2023-09-07T04:15:43;13.80;99.90
14349;DHT22;7258;50.376;8.742;2023-09-07T04:17:47;13.80;99.90
14349;DHT22;7258;50.376;8.742;2023-09-07T04:19:49;13.80;99.90
14349;DHT22;7258;50.376;8.742;2023-09-07T04:21:52;13.70;99.90
14349;DHT22;7258;50.376;8.742;2023-09-07T04:23:56;13.70;99.90
14349;DHT22;7258;50.376;8.742;2023-09-07T04:26:04;13.70;99.90
14349;DHT22;7258;50.376;8.742;2023-09-07T04:28:07;13.70;99.90
14349;DHT22;7258;50.376;8.742;2023-09-07T04:30:11;13.60;99.90
14349;DHT22;7258;50.376;8.742;2023-09-07T04:32:14;13.60;99.90
14349;DHT22;7258;50.376;8.742;2023-09-07T04:34:16;13.60;99.90
14349;DHT22;7258;50.376;8.742;2023-09-07T04:36:19;13.70;99.90
14349;DHT22;7258;50.376;8.742;2023-09-07T04:38:22;13.70;99.90
14349;DHT22;7258;50.376;8.742;2023-09-07T04:40:27;13.70;99.90
14349;DHT22;7258;50.376;8.742;2023-09-07T04:42:30;13.60;99.90
14349;DHT22;7258;50.376;8.742;2023-09-07T04:44:33;13.70;99.90
14349;DHT22;7258;50.376;8.742;2023-09-07T04:46:36;13.60;99.90
14349;DHT22;7258;50.376;8.742;2023-09-07T04:48:40;13.60;99.90
14349;DHT22;7258;50.376;8.742;2023-09-07T04:50:42;13.60;99.90
14349;DHT22;7258;50.376;8.742;2023-09-07T04:52:45;13.60;99.90
14349;DHT22;7258;50.376;8.742;2023-09-07T04:54:48;13.60;99.90
14349;DHT22;7258;50.376;8.742;2023-09-07T04:56:51;13.60;99.90
14349;DHT22;7258;50.376;8.742;2023-09-07T04:58:54;13.60;99.90
14349;DHT22;7258;50.376;8.742;2023-09-07T05:01:02;13.60;99.90
14349;DHT22;7258;50.376;8.742;2023-09-07T05:03:06;13.60;99.90
14349;DHT22;7258;50.376;8.742;2023-09-07T05:05:10;13.50;99.90
14349;DHT22;7258;50.376;8.742;2023-09-07T05:07:13;13.50;99.90
14349;DHT22;7258;50.376;8.742;2023-09-07T05:09:15;13.50;99.90
14349;DHT22;7258;50.376;8.742;2023-09-07T05:11:18;13.50;99.90
14349;DHT22;7258;50.376;8.742;2023-09-07T05:13:22;13.50;99.90
14349;DHT22;7258;50.376;8.742;2023-09-07T05:15:25;13.40;99.90
14349;DHT22;7258;50.376;8.742;2023-09-07T05:17:29;13.50;99.90
14349;DHT22;7258;50.376;8.742;2023-09-07T05:19:32;13.50;99.90
14349;DHT22;7258;50.376;8.742;2023-09-07T05:21:36;13.50;99.90
14349;DHT22;7258;50.376;8.742;2023-09-07T05:23:40;13.50;99.90
14349;DHT22;7258;50.376;8.742;2023-09-07T05:25:43;13.60;99.90
14349;DHT22;7258;50.376;8.742;2023-09-07T05:27:48;13.60;99.90
14349;DHT22;7258;50.376;8.742;2023-09-07T05:29:53;13.60;99.90
14349;DHT22;7258;50.376;8.742;2023-09-07T05:31:56;13.60;99.90
14349;DHT22;7258;50.376;8.742;2023-09-07T05:34:03;13.60;99.90
14349;DHT22;7258;50.376;8.742;2023-09-07T05:36:06;13.70;99.90
14349;DHT22;7258;50.376;8.742;2023-09-07T05:38:10;13.70;99.90
14349;DHT22;7258;50.376;8.742;2023-09-07T05:40:28;13.80;99.90
14349;DHT22;7258;50.376;8.742;2023-09-07T05:42:31;13.80;99.90
14349;DHT22;7258;50.376;8.742;2023-09-07T05:44:34;13.90;99.90
14349;DHT22;7258;50.376;8.742;2023-09-07T05:46:39;13.90;99.90
14349;DHT22;7258;50.376;8.742;2023-09-07T05:48:42;14.00;99.90
14349;DHT22;7258;50.376;8.742;2023-09-07T05:50:45;14.00;99.90
14349;DHT22;7258;50.376;8.742;2023-09-07T05:52:48;14.10;99.90
14349;DHT22;7258;50.376;8.742;2023-09-07T05:54:51;14.20;99.90
14349;DHT22;7258;50.376;8.742;2023-09-07T05:56:54;14.20;99.90
14349;DHT22;7258;50.376;8.742;2023-09-07T05:58:57;14.30;99.90
14349;DHT22;7258;50.376;8.742;2023-09-07T06:01:00;14.40;99.90
14349;DHT22;7258;50.376;8.742;2023-09-07T06:03:04;14.50;99.90
14349;DHT22;7258;50.376;8.742;2023-09-07T06:05:08;14.60;99.90
14349;DHT22;7258;50.376;8.742;2023-09-07T06:07:11;14.70;99.90
14349;DHT22;7258;50.376;8.742;2023-09-07T06:09:14;14.80;99.90
14349;DHT22;7258;50.376;8.742;2023-09-07T06:11:17;15.00;99.90
14349;DHT22;7258;50.376;8.742;2023-09-07T06:13:20;15.10;99.90
14349;DHT22;7258;50.376;8.742;2023-09-07T06:15:23;15.30;99.90
14349;DHT22;7258;50.376;8.742;2023-09-07T06:17:30;15.40;99.90
14349;DHT22;7258;50.376;8.742;2023-09-07T06:19:34;15.60;99.90
14349;DHT22;7258;50.376;8.742;2023-09-07T06:21:38;15.80;99.90
14349;DHT22;7258;50.376;8.742;2023-09-07T06:23:41;15.90;99.90
14349;DHT22;7258;50.376;8.742;2023-09-07T06:25:44;16.00;99.90
14349;DHT22;7258;50.376;8.742;2023-09-07T06:27:47;16.20;99.90
14349;DHT22;7258;50.376;8.742;2023-09-07T06:29:50;16.30;99.90
14349;DHT22;7258;50.376;8.742;2023-09-07T06:31:53;16.40;99.90
14349;DHT22;7258;50.376;8.742;2023-09-07T06:33:59;16.50;99.90
14349;DHT22;7258;50.376;8.742;2023-09-07T06:36:13;16.60;99.90
14349;DHT22;7258;50.376;8.742;2023-09-07T06:38:15;16.80;99.90
14349;DHT22;7258;50.376;8.742;2023-09-07T06:40:18;16.90;99.90
14349;DHT22;7258;50.376;8.742;2023-09-07T06:42:22;17.00;99.90
14349;DHT22;7258;50.376;8.742;2023-09-07T06:44:24;17.20;99.90
14349;DHT22;7258;50.376;8.742;2023-09-07T06:46:27;17.30;99.90
14349;DHT22;7258;50.376;8.742;2023-09-07T06:48:30;17.40;99.90
14349;DHT22;7258;50.376;8.742;2023-09-07T06:50:34;17.50;99.90
14349;DHT22;7258;50.376;8.742;2023-09-07T06:52:38;17.60;99.90
14349;DHT22;7258;50.376;8.742;2023-09-07T06:54:41;17.70;99.90
14349;DHT22;7258;50.376;8.742;2023-09-07T06:56:44;17.80;99.90
14349;DHT22;7258;50.376;8.742;2023-09-07T06:58:46;17.90;99.90
14349;DHT22;7258;50.376;8.742;2023-09-07T07:00:49;18.10;99.90
14349;DHT22;7258;50.376;8.742;2023-09-07T07:02:53;18.20;99.90
14349;DHT22;7258;50.376;8.742;2023-09-07T07:04:59;18.20;99.90
14349;DHT22;7258;50.376;8.742;2023-09-07T07:07:03;18.20;99.90
14349;DHT22;7258;50.376;8.742;2023-09-07T07:09:08;18.20;99.90
14349;DHT22;7258;50.376;8.742;2023-09-07T07:11:12;18.30;99.90
14349;DHT22;7258;50.376;8.742;2023-09-07T07:13:15;18.40;99.90
14349;DHT22;7258;50.376;8.742;2023-09-07T07:15:18;18.40;99.90
14349;DHT22;7258;50.376;8.742;2023-09-07T07:17:21;18.50;99.90
14349;DHT22;7258;50.376;8.742;2023-09-07T07:19:24;18.50;99.90
14349;DHT22;7258;50.376;8.742;2023-09-07T07:21:27;18.60;99.90
14349;DHT22;7258;50.376;8.742;2023-09-07T07:23:29;18.70;99.90
14349;DHT22;7258;50.376;8.742;2023-09-07T07:25:34;18.70;99.90
14349;DHT22;7258;50.376;8.742;2023-09-07T07:27:38;18.90;99.90
14349;DHT22;7258;50.376;8.742;2023-09-07T07:29:41;19.00;99.90
14349;DHT22;7258;50.376;8.742;2023-09-07T07:31:44;19.10;99.90
14349;DHT22;7258;50.376;8.742;2023-09-07T07:33:49;19.30;99.90
14349;DHT22;7258;50.376;8.742;2023-09-07T07:35:52;19.40;99.90
14349;DHT22;7258;50.376;8.742;2023-09-07T07:37:56;19.60;99.90
14349;DHT22;7258;50.376;8.742;2023-09-07T07:39:59;19.80;99.90
14349;DHT22;7258;50.376;8.742;2023-09-07T07:42:03;19.90;99.90
14349;DHT22;7258;50.376;8.742;2023-09-07T07:44:06;20.00;99.90
14349;DHT22;7258;50.376;8.742;2023-09-07T07:46:12;20.10;99.90
14349;DHT22;7258;50.376;8.742;2023-09-07T07:48:17;20.20;99.90
14349;DHT22;7258;50.376;8.742;2023-09-07T07:50:20;20.20;99.90
14349;DHT22;7258;50.376;8.742;2023-09-07T07:52:23;20.30;99.90
14349;DHT22;7258;50.376;8.742;2023-09-07T07:54:26;20.40;99.90
14349;DHT22;7258;50.376;8.742;2023-09-07T07:56:30;20.60;99.90
14349;DHT22;7258;50.376;8.742;2023-09-07T07:58:36;20.70;99.90
14349;DHT22;7258;50.376;8.742;2023-09-07T08:00:39;20.80;99.90
14349;DHT22;7258;50.376;8.742;2023-09-07T08:02:43;20.90;99.90
14349;DHT22;7258;50.376;8.742;2023-09-07T08:04:46;21.00;99.90
14349;DHT22;7258;50.376;8.742;2023-09-07T08:06:50;21.10;99.90
14349;DHT22;7258;50.376;8.742;2023-09-07T08:08:56;21.20;99.90
14349;DHT22;7258;50.376;8.742;2023-09-07T08:10:59;21.30;99.90
14349;DHT22;7258;50.376;8.742;2023-09-07T08:13:06;21.30;99.90
14349;DHT22;7258;50.376;8.742;2023-09-07T08:15:11;21.40;99.90
14349;DHT22;7258;50.376;8.742;2023-09-07T08:17:14;21.30;99.90
14349;DHT22;7258;50.376;8.742;2023-09-07T08:19:17;21.40;99.90
14349;DHT22;7258;50.376;8.742;2023-09-07T08:21:20;21.50;99.90
14349;DHT22;7258;50.376;8.742;2023-09-07T08:23:23;21.60;99.90
14349;DHT22;7258;50.376;8.742;2023-09-07T08:25:27;21.70;99.90
14349;DHT22;7258;50.376;8.742;2023-09-07T08:27:30;21.80;99.90
14349;DHT22;7258;50.376;8.742;2023-09-07T08:29:33;21.90;99.90
14349;DHT22;7258;50.376;8.742;2023-09-07T08:31:37;22.00;99.90
14349;DHT22;7258;50.376;8.742;2023-09-07T08:33:41;22.00;99.90
14349;DHT22;7258;50.376;8.742;2023-09-07T08:35:43;22.10;99.90
14349;DHT22;7258;50.376;8.742;2023-09-07T08:37:46;22.20;99.90
14349;DHT22;7258;50.376;8.742;2023-09-07T08:39:49;22.30;99.90
14349;DHT22;7258;50.376;8.742;2023-09-07T08:41:52;22.40;99.90
14349;DHT22;7258;50.376;8.742;2023-09-07T08:44:04;22.50;99.90
14349;DHT22;7258;50.376;8.742;2023-09-07T08:46:19;22.70;99.90
14349;DHT22;7258;50.376;8.742;2023-09-07T08:48:25;22.90;99.90
14349;DHT22;7258;50.376;8.742;2023-09-07T08:50:30;23.00;99.90
14349;DHT22;7258;50.376;8.742;2023-09-07T08:52:34;23.20;99.90
14349;DHT22;7258;50.376;8.742;2023-09-07T08:54:37;23.40;99.90
14349;DHT22;7258;50.376;8.742;2023-09-07T08:56:41;23.50;99.90
14349;DHT22;7258;50.376;8.742;2023-09-07T08:58:44;23.70;99.90
14349;DHT22;7258;50.376;8.742;2023-09-07T09:00:50;23.80;99.90
14349;DHT22;7258;50.376;8.742;2023-09-07T09:02:55;24.00;99.90
14349;DHT22;7258;50.376;8.742;2023-09-07T09:05:00;24.10;99.90
14349;DHT22;7258;50.376;8.742;2023-09-07T09:07:03;24.20;99.90
14349;DHT22;7258;50.376;8.742;2023-09-07T09:09:07;24.40;99.90
14349;DHT22;7258;50.376;8.742;2023-09-07T09:11:13;24.50;99.90
14349;DHT22;7258;50.376;8.742;2023-09-07T09:13:16;24.60;99.90
14349;DHT22;7258;50.376;8.742;2023-09-07T09:15:19;24.70;99.90
14349;DHT22;7258;50.376;8.742;2023-09-07T09:17:24;24.70;99.90
14349;DHT22;7258;50.376;8.742;2023-09-07T09:19:31;24.80;99.90
14349;DHT22;7258;50.376;8.742;2023-09-07T09:21:37;24.90;99.90
14349;DHT22;7258;50.376;8.742;2023-09-07T09:23:40;24.90;99.90
14349;DHT22;7258;50.376;8.742;2023-09-07T09:25:44;25.00;99.90
14349;DHT22;7258;50.376;8.742;2023-09-07T09:27:48;25.00;99.90
14349;DHT22;7258;50.376;8.742;2023-09-07T09:29:51;25.10;99.90
14349;DHT22;7258;50.376;8.742;2023-09-07T09:31:55;25.10;99.90
14349;DHT22;7258;50.376;8.742;2023-09-07T09:33:58;25.20;99.90
14349;DHT22;7258;50.376;8.742;2023-09-07T09:36:06;25.30;99.90
14349;DHT22;7258;50.376;8.742;2023-09-07T09:38:26;25.40;99.90
14349;DHT22;7258;50.376;8.742;2023-09-07T09:40:36;25.40;99.90
14349;DHT22;7258;50.376;8.742;2023-09-07T09:42:41;25.50;99.80
14349;DHT22;7258;50.376;8.742;2023-09-07T09:44:43;25.50;99.90
14349;DHT22;7258;50.376;8.742;2023-09-07T09:46:49;25.50;99.90
14349;DHT22;7258;50.376;8.742;2023-09-07T09:48:59;25.60;99.80
14349;DHT22;7258;50.376;8.742;2023-09-07T09:51:10;25.60;99.90
14349;DHT22;7258;50.376;8.742;2023-09-07T09:53:14;25.70;99.50
14349;DHT22;7258;50.376;8.742;2023-09-07T09:55:22;25.80;99.30
14349;DHT22;7258;50.376;8.742;2023-09-07T09:57:25;25.90;99.90
14349;DHT22;7258;50.376;8.742;2023-09-07T09:59:32;26.00;99.90
14349;DHT22;7258;50.376;8.742;2023-09-07T10:01:43;26.20;99.20
14349;DHT22;7258;50.376;8.742;2023-09-07T10:03:48;26.30;99.10
14349;DHT22;7258;50.376;8.742;2023-09-07T10:05:52;26.30;98.20
14349;DHT22;7258;50.376;8.742;2023-09-07T10:08:00;26.30;98.20
14349;DHT22;7258;50.376;8.742;2023-09-07T10:10:04;26.40;98.40
14349;DHT22;7258;50.376;8.742;2023-09-07T10:12:13;26.50;98.40
14349;DHT22;7258;50.376;8.742;2023-09-07T10:14:19;26.60;97.30
14349;DHT22;7258;50.376;8.742;2023-09-07T10:16:21;26.70;96.60
14349;DHT22;7258;50.376;8.742;2023-09-07T10:18:33;26.80;96.20
14349;DHT22;7258;50.376;8.742;2023-09-07T10:20:54;26.80;96.70
14349;DHT22;7258;50.376;8.742;2023-09-07T10:23:02;26.90;94.30
14349;DHT22;7258;50.376;8.742;2023-09-07T10:25:05;26.80;94.30
14349;DHT22;7258;50.376;8.742;2023-09-07T10:27:15;26.90;95.30
14349;DHT22;7258;50.376;8.742;2023-09-07T10:29:17;27.00;95.60
14349;DHT22;7258;50.376;8.742;2023-09-07T10:31:25;27.10;94.70
14349;DHT22;7258;50.376;8.742;2023-09-07T10:33:45;27.10;94.60
14349;DHT22;7258;50.376;8.742;2023-09-07T10:35:48;27.10;95.00
14349;DHT22;7258;50.376;8.742;2023-09-07T10:37:51;27.10;95.00
14349;DHT22;7258;50.376;8.742;2023-09-07T10:39:54;27.10;95.00
14349;DHT22;7258;50.376;8.742;2023-09-07T10:41:58;27.20;95.40
14349;DHT22;7258;50.376;8.742;2023-09-07T10:44:02;27.10;94.40
14349;DHT22;7258;50.376;8.742;2023-09-07T10:46:05;27.20;94.80
14349;DHT22;7258;50.376;8.742;2023-09-07T10:48:08;27.20;95.20
14349;DHT22;7258;50.376;8.742;2023-09-07T10:50:12;27.20;95.20
14349;DHT22;7258;50.376;8.742;2023-09-07T10:52:15;27.20;95.30
14349;DHT22;7258;50.376;8.742;2023-09-07T10:54:22;27.30;95.50
14349;DHT22;7258;50.376;8.742;2023-09-07T10:56:25;27.40;94.50
14349;DHT22;7258;50.376;8.742;2023-09-07T10:58:31;27.50;94.40
14349;DHT22;7258;50.376;8.742;2023-09-07T11:00:36;27.60;94.70
14349;DHT22;7258;50.376;8.742;2023-09-07T11:02:40;27.70;94.10
14349;DHT22;7258;50.376;8.742;2023-09-07T11:04:43;27.80;94.10
14349;DHT22;7258;50.376;8.742;2023-09-07T11:06:47;27.80;93.80
14349;DHT22;7258;50.376;8.742;2023-09-07T11:08:51;27.70;93.60
14349;DHT22;7258;50.376;8.742;2023-09-07T11:10:54;27.70;94.60
14349;DHT22;7258;50.376;8.742;2023-09-07T11:13:01;27.70;94.20
14349;DHT22;7258;50.376;8.742;2023-09-07T11:15:08;27.70;94.10
14349;DHT22;7258;50.376;8.742;2023-09-07T11:17:15;27.70;94.00
14349;DHT22;7258;50.376;8.742;2023-09-07T11:19:21;27.80;93.80
14349;DHT22;7258;50.376;8.742;2023-09-07T11:21:24;27.80;93.10
14349;DHT22;7258;50.376;8.742;2023-09-07T11:23:27;27.80;93.30
14349;DHT22;7258;50.376;8.742;2023-09-07T11:25:35;27.80;93.70
14349;DHT22;7258;50.376;8.742;2023-09-07T11:27:40;27.90;93.50
14349;DHT22;7258;50.376;8.742;2023-09-07T11:29:50;28.00;93.30
14349;DHT22;7258;50.376;8.742;2023-09-07T11:31:53;28.10;93.40
14349;DHT22;7258;50.376;8.742;2023-09-07T11:33:57;28.10;93.20
14349;DHT22;7258;50.376;8.742;2023-09-07T11:36:00;28.10;93.00
14349;DHT22;7258;50.376;8.742;2023-09-07T11:38:04;28.10;92.90
14349;DHT22;7258;50.376;8.742;2023-09-07T11:40:11;28.10;93.60
14349;DHT22;7258;50.376;8.742;2023-09-07T11:42:14;28.20;93.10
14349;DHT22;7258;50.376;8.742;2023-09-07T11:44:17;28.30;93.60
14349;DHT22;7258;50.376;8.742;2023-09-07T11:46:20;28.40;93.50
14349;DHT22;7258;50.376;8.742;2023-09-07T11:48:22;28.50;93.50
14349;DHT22;7258;50.376;8.742;2023-09-07T11:50:27;28.50;93.00
14349;DHT22;7258;50.376;8.742;2023-09-07T11:52:31;28.50;92.00
14349;DHT22;7258;50.376;8.742;2023-09-07T11:54:35;28.60;91.70
14349;DHT22;7258;50.376;8.742;2023-09-07T11:56:40;28.60;91.50
14349;DHT22;7258;50.376;8.742;2023-09-07T11:58:44;28.60;91.60
14349;DHT22;7258;50.376;8.742;2023-09-07T12:00:47;28.60;91.10
14349;DHT22;7258;50.376;8.742;2023-09-07T12:02:50;28.60;90.90
14349;DHT22;7258;50.376;8.742;2023-09-07T12:04:53;28.70;91.30
14349;DHT22;7258;50.376;8.742;2023-09-07T12:06:58;28.70;90.80
14349;DHT22;7258;50.376;8.742;2023-09-07T12:09:02;28.70;90.90
14349;DHT22;7258;50.376;8.742;2023-09-07T12:11:05;28.70;91.40
14349;DHT22;7258;50.376;8.742;2023-09-07T12:13:08;28.80;91.70
14349;DHT22;7258;50.376;8.742;2023-09-07T12:15:11;28.90;91.50
14349;DHT22;7258;50.376;8.742;2023-09-07T12:17:14;29.00;91.40
14349;DHT22;7258;50.376;8.742;2023-09-07T12:19:17;29.00;91.40
14349;DHT22;7258;50.376;8.742;2023-09-07T12:21:20;29.00;91.50
14349;DHT22;7258;50.376;8.742;2023-09-07T12:23:25;29.00;91.30
14349;DHT22;7258;50.376;8.742;2023-09-07T12:25:28;29.00;91.30
14349;DHT22;7258;50.376;8.742;2023-09-07T12:27:30;29.00;91.40
14349;DHT22;7258;50.376;8.742;2023-09-07T12:29:53;29.00;91.10
14349;DHT22;7258;50.376;8.742;2023-09-07T12:31:56;29.00;91.50
14349;DHT22;7258;50.376;8.742;2023-09-07T12:33:59;29.00;91.50
14349;DHT22;7258;50.376;8.742;2023-09-07T12:36:02;29.00;91.30
14349;DHT22;7258;50.376;8.742;2023-09-07T12:38:05;29.00;90.90
14349;DHT22;7258;50.376;8.742;2023-09-07T12:40:12;29.10;91.20
14349;DHT22;7258;50.376;8.742;2023-09-07T12:42:17;29.10;90.20
14349;DHT22;7258;50.376;8.742;2023-09-07T12:44:20;29.10;90.50
14349;DHT22;7258;50.376;8.742;2023-09-07T12:46:23;29.10;90.50
14349;DHT22;7258;50.376;8.742;2023-09-07T12:48:25;29.10;89.20
14349;DHT22;7258;50.376;8.742;2023-09-07T12:50:28;29.10;89.60
14349;DHT22;7258;50.376;8.742;2023-09-07T12:52:32;29.10;89.40
14349;DHT22;7258;50.376;8.742;2023-09-07T12:54:36;29.10;89.40
14349;DHT22;7258;50.376;8.742;2023-09-07T12:56:41;29.10;90.00
14349;DHT22;7258;50.376;8.742;2023-09-07T12:58:44;29.00;90.30
14349;DHT22;7258;50.376;8.742;2023-09-07T13:00:47;29.10;90.60
14349;DHT22;7258;50.376;8.742;2023-09-07T13:02:52;29.10;89.80
14349;DHT22;7258;50.376;8.742;2023-09-07T13:04:55;29.10;89.80
14349;DHT22;7258;50.376;8.742;2023-09-07T13:06:58;29.00;89.20
14349;DHT22;7258;50.376;8.742;2023-09-07T13:09:02;28.90;90.20
14349;DHT22;7258;50.376;8.742;2023-09-07T13:11:06;28.80;89.50
14349;DHT22;7258;50.376;8.742;2023-09-07T13:13:10;28.80;89.80
14349;DHT22;7258;50.376;8.742;2023-09-07T13:15:13;28.80;89.30